createdAt,value
2022-08-29T00:05:42.896Z,19.4
2022-08-29T00:15:45.253Z,19.2
2022-08-29T00:25:42.891Z,19.1
2022-08-29T00:35:42.837Z,19
2022-08-29T00:45:42.907Z,18.7
2022-08-29T00:55:42.834Z,18.6
2022-08-29T01:05:42.780Z,18.6
2022-08-29T01:15:42.750Z,18.5
2022-08-29T01:25:42.762Z,18.4
2022-08-29T01:35:42.725Z,18.3
2022-08-29T01:45:42.825Z,18.2
2022-08-29T01:55:42.732Z,18.1
2022-08-29T02:05:42.652Z,17.9
2022-08-29T02:15:42.638Z,17.7
2022-08-29T02:25:42.644Z,17.7
2022-08-29T02:35:42.963Z,17.5
2022-08-29T02:45:42.606Z,17.4
2022-08-29T02:55:42.552Z,17.4
2022-08-29T03:05:42.526Z,17.3
2022-08-29T03:15:42.549Z,17.1
2022-08-29T03:25:42.490Z,17
2022-08-29T03:35:42.467Z,16.8
2022-08-29T03:45:42.478Z,16.8
2022-08-29T03:55:42.431Z,16.8
2022-08-29T04:05:42.413Z,16.7
2022-08-29T04:15:42.499Z,16.6
2022-08-29T04:25:42.369Z,16.6
2022-08-29T04:35:42.356Z,16.4
2022-08-29T04:45:42.366Z,16.4
2022-08-29T04:55:42.316Z,16.4
2022-08-29T05:05:42.287Z,16.4
2022-08-29T05:15:42.447Z,16.3
2022-08-29T05:25:42.252Z,16.2
2022-08-29T05:35:42.231Z,16.4
2022-08-29T05:45:42.249Z,16.5
2022-08-29T05:55:42.183Z,16.6
2022-08-29T06:05:42.181Z,17
2022-08-29T06:15:42.191Z,17.4
2022-08-29T06:25:42.174Z,17.8
2022-08-29T06:35:42.109Z,18.2
2022-08-29T06:45:42.127Z,18.6
2022-08-29T06:55:42.064Z,19
2022-08-29T07:05:42.048Z,19.4
2022-08-29T07:15:42.062Z,19.7
2022-08-29T07:25:42.046Z,20
2022-08-29T07:35:41.983Z,20.4
2022-08-29T07:45:41.983Z,20.6
2022-08-29T07:55:41.971Z,21
2022-08-29T08:05:41.925Z,21.3
2022-08-29T08:15:41.902Z,21.7
2022-08-29T08:25:41.900Z,22.2
2022-08-29T08:35:42.252Z,22.6
2022-08-29T08:45:41.916Z,23
2022-08-29T08:55:41.862Z,23.4
2022-08-29T09:05:44.110Z,23.7
2022-08-29T09:15:41.768Z,24.1
2022-08-29T09:25:41.773Z,24.7
2022-08-29T09:35:41.722Z,27.1
2022-08-29T09:45:41.755Z,29.4
2022-08-29T09:55:41.750Z,31.6
2022-08-29T10:05:41.659Z,32.9
2022-08-29T10:15:50.340Z,34.2
2022-08-29T10:25:41.644Z,35.5
2022-08-29T10:35:41.594Z,36.6
2022-08-29T10:45:41.634Z,37.4
2022-08-29T10:55:41.588Z,37.7
2022-08-29T11:05:41.537Z,38.3
2022-08-29T11:15:41.534Z,38.8
2022-08-29T11:25:41.534Z,39
2022-08-29T11:35:41.481Z,38.6
2022-08-29T11:45:41.492Z,37.9
2022-08-29T11:55:41.482Z,37.4
2022-08-29T12:05:41.424Z,38.1
2022-08-29T12:15:41.443Z,39.1
2022-08-29T12:25:41.425Z,39.4
2022-08-29T12:35:41.358Z,39.9
2022-08-29T12:45:41.390Z,40.2
2022-08-29T12:55:41.357Z,40.7
2022-08-29T13:05:41.317Z,40.8
2022-08-29T13:15:41.357Z,41.4
2022-08-29T13:25:41.305Z,41.7
2022-08-29T13:35:41.253Z,42.7
2022-08-29T13:45:41.270Z,42.8
2022-08-29T13:55:41.250Z,42.1
2022-08-29T14:05:41.208Z,42.9
2022-08-29T14:15:41.316Z,41.9
2022-08-29T14:25:41.221Z,41.8
2022-08-29T14:35:43.221Z,42.4
2022-08-29T14:45:41.171Z,42.7
2022-08-29T14:55:41.146Z,42.2
2022-08-29T15:05:41.100Z,41.4
2022-08-29T15:15:41.145Z,41.8
2022-08-29T15:25:45.136Z,41.6
2022-08-29T15:35:41.076Z,41
2022-08-29T15:45:41.073Z,40.1
2022-08-29T15:55:44.304Z,39.7
2022-08-29T16:05:40.999Z,39.4
2022-08-29T16:15:41.187Z,38.9
2022-08-29T16:25:43.021Z,38.2
2022-08-29T16:35:40.941Z,38
2022-08-29T16:45:41.120Z,37.2
2022-08-29T16:55:40.924Z,36.7
2022-08-29T17:05:40.868Z,35.6
2022-08-29T17:15:40.893Z,34.3
2022-08-29T17:25:40.865Z,33.6
2022-08-29T17:35:40.813Z,32.9
2022-08-29T17:45:40.854Z,32.3
2022-08-29T17:55:40.768Z,31.6
2022-08-29T18:05:40.744Z,30.9
2022-08-29T18:15:40.756Z,30.5
2022-08-29T18:25:40.696Z,30
2022-08-29T18:35:40.684Z,29.4
2022-08-29T18:45:40.751Z,28.6
2022-08-29T18:55:40.641Z,28
2022-08-29T19:05:40.639Z,27.2
2022-08-29T19:15:41.561Z,26.8
2022-08-29T19:25:40.576Z,26.3
2022-08-29T19:35:40.547Z,25.9
2022-08-29T19:45:40.582Z,25.5
2022-08-29T19:55:40.499Z,25.3
2022-08-29T20:05:40.470Z,24.9
2022-08-29T20:15:40.485Z,24.6
2022-08-29T20:25:40.441Z,24.4
2022-08-29T20:35:40.440Z,24.1
2022-08-29T20:45:40.422Z,23.8
2022-08-29T20:55:40.365Z,23.7
2022-08-29T21:05:40.348Z,23.4
2022-08-29T21:15:40.333Z,23.2
2022-08-29T21:25:40.346Z,23.3
2022-08-29T21:45:40.260Z,23.4
2022-08-29T21:55:40.279Z,23.4
2022-08-29T22:05:43.640Z,23.4
2022-08-29T22:15:40.257Z,23.4
2022-08-29T22:25:40.179Z,23.5
2022-08-29T22:35:40.148Z,23.4
2022-08-29T22:45:40.121Z,23.2
2022-08-29T22:55:40.158Z,23
2022-08-29T23:05:40.097Z,22.9
2022-08-29T23:15:40.147Z,22.9
2022-08-29T23:25:40.037Z,22.8
2022-08-29T23:35:40.050Z,22.8
2022-08-29T23:45:40.007Z,22.6
2022-08-29T23:55:40.014Z,22.5
